• Join FlightAware (Why Join?)
  • Login
  • US Flag 
10:45PM EDT


 

Airport Tracker/Info


-or-


 

Live Flight TrackerFlight Track Log ✈ UAL4528 ✈ 21-Apr-2013 ✈ KIND - KIAH

Flight Track Log - Related Links

Times and Time Zones

All times are in EDT time to prevent confusion due to time zone crossing. See the UAL4528 flight status page for this flight to view local times or setup timezone preferences in your user account.

Time Position Orientation Groundspeed Altitude Reporting Facility
EDT Latitude Longitude Course Direction KTS MPH feet Rate Location/Type
02:49PM 39.7167 -86.2833 201° Southwest 156 180 1,400  Level Indianapolis TRACON
02:50PM 39.7500 -86.2500 38° Northeast 159 183 2,300 1,860 Climbing Indianapolis TRACON
02:51PM 39.7333 -86.2000 113° Southeast 211 243 4,400 1,740 Climbing Indianapolis TRACON
02:52PM 39.6667 -86.2167 191° South 265 305 6,000 1,620 Climbing Indianapolis TRACON
02:53PM 39.3502 -86.4832 204° Southwest  Level FlightAware Approximate
02:54PM 39.2569 -86.5300 201° Southwest  Level FlightAware Approximate
02:54PM 39.5792 -86.2889 212° Southwest 279 321 8,600  Level Indianapolis Center
02:55PM 39.4953 -86.3533 211° Southwest 285 328 10,500 1,440 Climbing Indianapolis Center
02:56PM 39.4150 -86.4128 210° Southwest 312 359 11,600 1,080 Climbing Indianapolis Center
02:57PM 39.3311 -86.4747 210° Southwest 332 382 12,800 1,320 Climbing Indianapolis Center
02:58PM 39.2469 -86.5372 210° Southwest 342 394 14,400 1,500 Climbing Indianapolis Center
02:59PM 39.1625 -86.5978 209° Southwest 345 397 16,000 1,320 Climbing Indianapolis Center
03:00PM 39.0772 -86.6542 207° Southwest 344 396 17,200 960 Climbing Indianapolis Center
03:01PM 38.9883 -86.7061 204° Southwest 347 399 18,000 1,200 Climbing Indianapolis Center
03:02PM 38.8828 -86.7683 205° Southwest 346 398 19,700 1,380 Climbing Indianapolis Center
03:03PM 38.7947 -86.8219 205° Southwest 347 399 20,900 1,140 Climbing Indianapolis Center
03:04PM 38.7050 -86.8733 204° Southwest 352 405 22,100 1,140 Climbing Indianapolis Center
03:05PM 38.6142 -86.9275 205° Southwest 358 412 23,300 1,080 Climbing Indianapolis Center
03:06PM 38.5231 -86.9825 205° Southwest 359 413 24,400 1,020 Climbing Indianapolis Center
03:07PM 38.4517 -87.0689 223° Southwest 358 412 25,500 1,200 Climbing Indianapolis Center
03:08PM 38.3725 -87.1750 226° Southwest 354 407 26,900 1,200 Climbing Indianapolis Center
03:09PM 38.3067 -87.2628 226° Southwest 349 402 28,000 1,020 Climbing Indianapolis Center
03:10PM 38.2406 -87.3506 226° Southwest 346 398 29,100 1,080 Climbing Indianapolis Center
03:11PM 38.1744 -87.4378 226° Southwest 344 396 30,300 1,080 Climbing Indianapolis Center
03:12PM 38.1097 -87.5239 226° Southwest 338 389 31,400 1,020 Climbing Indianapolis Center
03:13PM 38.0319 -87.6258 226° Southwest 335 386 32,500 960 Climbing Indianapolis Center
03:14PM 37.9661 -87.7114 226° Southwest 337 388 33,500 900 Climbing Indianapolis Center
03:15PM 37.8908 -87.7800 216° Southwest 338 389 34,400 840 Climbing Indianapolis Center
03:16PM 37.8042 -87.8217 201° Southwest 336 387 35,300 720 Climbing Indianapolis Center
03:17PM 37.7161 -87.8639 201° Southwest 327 376 36,000 300 Climbing Indianapolis Center
03:18PM 37.6278 -87.9056 200° South 334 384 36,000  Level Indianapolis Center
03:19PM 37.5606 -87.9450 205° Southwest 344 396 36,000  Level Memphis Center
03:20PM 37.4719 -88.0050 208° Southwest 351 404 36,000  Level Memphis Center
03:21PM 37.3967 -88.0989 225° Southwest 366 421 36,000  Level Memphis Center
03:22PM 37.3150 -88.1897 222° Southwest 380 437 36,000  Level Memphis Center
03:23PM 37.2353 -88.2831 223° Southwest 390 449 36,000  Level Memphis Center
03:24PM 37.1536 -88.3764 222° Southwest 395 455 36,000  Level Memphis Center
03:25PM 37.0717 -88.4719 223° Southwest 401 461 36,000  Level Memphis Center
03:26PM 36.9897 -88.5647 222° Southwest 406 467 36,000  Level Memphis Center
03:27PM 36.8914 -88.6758 222° Southwest 406 467 36,000  Level Memphis Center
03:28PM 36.8072 -88.7736 223° Southwest 411 473 36,000  Level Memphis Center
03:29PM 36.7250 -88.8683 223° Southwest 411 473 36,000  Level Memphis Center
03:30PM 36.6425 -88.9578 221° Southwest 406 467 36,000  Level Memphis Center
03:31PM 36.5581 -89.0522 222° Southwest 406 467 36,000  Level Memphis Center
03:32PM 36.4758 -89.1467 223° Southwest 411 473 36,000  Level Memphis Center
03:33PM 36.3933 -89.2406 223° Southwest 411 473 36,000  Level Memphis Center
03:34PM 36.3108 -89.3344 223° Southwest 411 473 36,000  Level Memphis Center
03:35PM 36.2281 -89.4206 220° Southwest 421 484 36,000  Level Memphis Center
03:36PM 36.1472 -89.5114 222° Southwest 414 476 36,000  Level Memphis Center
03:37PM 36.0644 -89.6047 222° Southwest 408 470 36,000  Level Memphis Center
03:38PM 35.9797 -89.6978 222° Southwest 408 470 36,000  Level Memphis Center
03:39PM 35.8967 -89.7908 222° Southwest 408 470 36,000  Level Memphis Center
03:40PM 35.8094 -89.8861 222° Southwest 413 475 36,000  Level Memphis Center
03:41PM 35.7242 -89.9811 222° Southwest 413 475 36,000  Level Memphis Center
03:42PM 35.6433 -90.0736 223° Southwest 407 468 36,000  Level Memphis Center
03:43PM 35.5558 -90.1681 221° Southwest 407 468 36,000  Level Memphis Center
03:44PM 35.4725 -90.2603 222° Southwest 412 474 36,000  Level Memphis Center
03:45PM 35.3850 -90.3569 222° Southwest 412 474 36,000  Level Memphis Center
03:46PM 35.2972 -90.4511 221° Southwest 412 474 36,000  Level Memphis Center
03:47PM 35.2117 -90.5453 222° Southwest 412 474 36,000  Level Memphis Center
03:48PM 35.1239 -90.6389 221° Southwest 412 474 36,000  Level Memphis Center
03:49PM 35.0319 -90.7375 221° Southwest 412 474 36,000  Level Memphis Center
03:50PM 34.9461 -90.8283 221° Southwest 412 474 36,000  Level Memphis Center
03:51PM 34.8600 -90.9214 222° Southwest 412 474 36,000  Level Memphis Center
03:52PM 34.7761 -91.0119 222° Southwest 407 468 36,000  Level Memphis Center
03:53PM 34.6900 -91.0997 220° Southwest 411 473 36,000  Level Memphis Center
03:54PM 34.6061 -91.1897 221° Southwest 406 467 36,000  Level Memphis Center
03:55PM 34.5261 -91.2772 222° Southwest 406 467 36,000  Level Memphis Center
03:56PM 34.4419 -91.3644 221° Southwest 406 467 36,000  Level Memphis Center
03:57PM 34.3600 -91.4492 220° Southwest 406 467 36,000  Level Memphis Center
03:58PM 34.2778 -91.5386 222° Southwest 406 467 36,000  Level Memphis Center
03:59PM 34.1933 -91.6253 220° Southwest 406 467 36,000  Level Memphis Center
04:00PM 34.1194 -91.7069 222° Southwest 406 467 36,000  Level Memphis Center
04:02PM 33.9592 -91.8722 221° Southwest 402 463 36,000  Level Fort Worth Center
04:03PM 33.8733 -91.9603 220° Southwest 402 463 36,000  Level Fort Worth Center
04:04PM 33.7894 -92.0456 220° Southwest 407 468 36,000  Level Fort Worth Center
04:05PM 33.7033 -92.1331 220° Southwest 407 468 36,000  Level Fort Worth Center
04:06PM 33.5953 -92.1894 203° Southwest 407 468 36,000  Level Fort Worth Center
04:07PM 33.4775 -92.2239 194° South 422 486 36,000  Level Fort Worth Center
04:08PM 33.3542 -92.2633 195° South 428 493 36,000  Level Fort Worth Center
04:09PM 33.2344 -92.2978 194° South 434 499 36,000  Level Fort Worth Center
04:10PM 33.1108 -92.3369 195° South 444 511 36,000  Level Fort Worth Center
04:11PM 32.9911 -92.3711 193° South 449 517 36,000  Level Fort Worth Center
04:12PM 32.8736 -92.4050 194° South 442 509 36,000  Level Fort Worth Center
04:13PM 32.7561 -92.4411 194° South 442 509 36,000  Level Fort Worth Center
04:15PM 32.5061 -92.5225 195° South 440 506 36,000  Level Houston Center
04:16PM 32.3883 -92.5572 194° South 436 502 36,000  Level Houston Center
04:18PM 32.2703 -92.5894 193° South 436 502 36,000  Level Houston Center
04:19PM 32.1308 -92.6336 195° South 432 497 36,000  Level Houston Center
04:20PM 32.0144 -92.6667 194° South 431 496 36,000  Level Houston Center
04:21PM 31.9189 -92.7339 211° Southwest 404 465 36,000 -120 Level Houston Center
04:22PM 31.8339 -92.8128 218° Southwest 392 451 35,800 -540 Descending Houston Center
04:23PM 31.7528 -92.8917 220° Southwest 383 441 35,000 -420 Descending Houston Center
04:24PM 31.6525 -92.9881 219° Southwest 390 449 35,000  Level Houston Center
04:25PM 31.5656 -93.0708 219° Southwest 402 463 35,000  Level Houston Center
04:26PM 31.4778 -93.1542 219° Southwest 407 468 35,000 -60 Level Houston Center
04:27PM 31.3919 -93.2369 219° Southwest 403 464 34,900  Descending Houston Center
04:28PM 31.2981 -93.3267 219° Southwest 403 464 35,000  Climbing Houston Center
04:29PM 31.2183 -93.4028 219° Southwest 403 464 35,000 -360 Level Houston Center
04:30PM 31.1158 -93.5006 219° Southwest 399 459 34,300 -1,380 Descending Houston Center
04:31PM 31.0294 -93.5825 219° Southwest 400 460 32,200 -2,100 Descending Houston Center
04:32PM 30.9439 -93.6633 219° Southwest 398 458 30,000 -2,220 Descending Houston Center
04:33PM 30.8564 -93.7450 219° Southwest 402 463 27,700 -2,280 Descending Houston Center
04:34PM 30.7686 -93.8297 220° Southwest 410 472 25,300 -2,580 Descending Houston Center
04:35PM 30.6625 -93.9292 219° Southwest 412 474 22,400 -2,400 Descending Houston Center
04:36PM 30.5764 -94.0108 219° Southwest 403 464 20,300 -2,040 Descending Houston Center
04:37PM 30.4911 -94.0897 219° Southwest 395 455 18,300 -1,980 Descending Houston Center
04:38PM 30.4075 -94.1689 219° Southwest 392 451 16,300 -2,040 Descending Houston Center
04:39PM 30.3264 -94.2422 218° Southwest 379 436 14,200 -2,280 Descending Houston Center
04:40PM 30.2672 -94.2972 219° Southwest 326 375 12,600 -2,160 Descending Houston Center
04:40PM 30.2414 -94.3225 220° Southwest 337 388 12,000 -660 Descending Houston Center
04:41PM 30.1942 -94.3867 230° Southwest 326 375 11,800 -720 Descending Houston Center
04:42PM 30.1756 -94.4956 259° West 342 394 10,800 -900 Descending Houston Center
04:42PM 30.1728 -94.5125 259° West 343 395 10,700 -780 Descending Houston Center
04:43PM 30.1567 -94.6044 259° West 333 383 10,000 -720 Descending Houston Center
04:43PM 30.1547 -94.6150 258° West 333 383 10,000  Level Houston Center
04:44PM 30.1375 -94.7108 258° West 332 382 10,000  Level Houston Center
04:44PM 30.1369 -94.7186 265° West 330 380 10,000  Level Houston Center
04:45PM 30.1203 -94.8169 259° West 333 383 10,000  Level Houston Center
04:45PM 30.1153 -94.8453 258° West 335 386 10,000  Level Houston Center
04:46PM 30.1056 -94.9253 262° West 328 377 10,000  Level Houston Center
04:46PM 30.1072 -94.9467 275° West 319 367 10,000 -780 Level Houston Center
04:47PM 30.1058 -95.0169 269° West 263 303 9,200 -1,080 Descending Houston Center
04:48PM 30.1056 -95.0331 269° West 281 323 8,900 -1,620 Descending Houston Center
04:48PM 30.1050 -95.0992 269° West 263 303 7,600 -1,560 Descending Houston Center
04:49PM 30.1064 -95.1172 275° West 268 308 7,300 -1,380 Descending Houston Center
04:49PM 30.1050 -95.1886 269° West 260 299 6,200 -1,200 Descending Houston Center
04:50PM 30.1072 -95.1997 283° West 261 300 6,100 -240 Descending Houston Center
04:50PM 30.1061 -95.2706 269° West 263 303 6,000 -120 Descending Houston Center
04:51PM 30.1072 -95.3003 272° West 262 302 6,000  Level Houston Center
04:51PM 30.1061 -95.3600 269° West 265 305 6,000 -240 Level Houston Center
04:52PM 30.1061 -95.3836 270° West 263 303 5,800 -1,140 Descending Houston Center
04:52PM 30.0817 -95.4378 242° Southwest 261 300 4,900 -1,380 Descending Houston Center
04:53PM 30.0725 -95.4583 243° Southwest 266 306 4,400 -1,680 Descending Houston Center
04:53PM 30.0414 -95.5053 233° Southwest 267 307 3,200 -1,860 Descending Houston Center